createdAt,value
2022-12-22T00:01:38.593Z,80.40
2022-12-22T00:07:02.844Z,80.10
2022-12-22T00:12:29.859Z,87.90
2022-12-22T00:17:54.564Z,79.60
2022-12-22T00:23:19.071Z,74.50
2022-12-22T00:28:43.793Z,87.30
2022-12-22T00:34:08.251Z,87.20
2022-12-22T00:39:34.392Z,85.80
2022-12-22T00:44:59.110Z,79.50
2022-12-22T00:50:26.884Z,83.70
2022-12-22T00:55:52.287Z,94.90
2022-12-22T01:01:17.100Z,96.70
2022-12-22T01:06:43.423Z,89.20
2022-12-22T01:12:07.998Z,87.30
2022-12-22T01:17:32.873Z,83.60
2022-12-22T01:22:57.372Z,84.60
2022-12-22T01:28:22.933Z,87.90
2022-12-22T01:33:47.324Z,88.70
2022-12-22T01:39:11.914Z,87.70
2022-12-22T01:44:37.622Z,79.20
2022-12-22T01:50:04.091Z,86.30
2022-12-22T01:55:34.721Z,82.90
2022-12-22T02:01:00.818Z,86.70
2022-12-22T02:06:34.785Z,83.40
2022-12-22T02:12:07.364Z,94.30
2022-12-22T02:17:40.758Z,95.70
2022-12-22T02:23:11.754Z,87.00
2022-12-22T02:28:36.694Z,80.30
2022-12-22T02:34:01.190Z,101.00
2022-12-22T02:39:37.908Z,84.10
2022-12-22T02:45:11.958Z,82.50
2022-12-22T02:50:41.519Z,94.00
2022-12-22T02:56:06.777Z,101.80
2022-12-22T03:01:32.090Z,87.70
2022-12-22T03:06:56.579Z,87.90
2022-12-22T03:12:21.130Z,107.00
2022-12-22T03:17:45.668Z,88.40
2022-12-22T03:23:10.329Z,84.60
2022-12-22T03:28:15.938Z,89.00
2022-12-22T03:33:21.995Z,91.50
2022-12-22T03:38:28.333Z,77.60
2022-12-22T03:43:52.997Z,79.70
2022-12-22T03:49:12.402Z,79.20
2022-12-22T03:54:20.740Z,82.30
2022-12-22T03:59:26.685Z,71.50
2022-12-22T04:04:32.893Z,77.20
2022-12-22T04:09:58.451Z,69.90
2022-12-22T04:15:04.818Z,67.60
2022-12-22T04:20:12.205Z,60.10
2022-12-22T04:25:18.237Z,54.30
2022-12-22T04:30:23.976Z,62.70
2022-12-22T04:35:29.705Z,66.90
2022-12-22T04:40:35.546Z,64.60
2022-12-22T04:45:41.550Z,66.50
2022-12-22T04:50:49.866Z,73.90
2022-12-22T04:55:59.444Z,75.70
2022-12-22T05:01:13.540Z,63.50
2022-12-22T05:06:19.364Z,60.80
2022-12-22T05:11:25.119Z,61.80
2022-12-22T05:16:31.271Z,69.70
2022-12-22T05:21:37.602Z,65.10
2022-12-22T05:26:43.417Z,61.90
2022-12-22T05:31:49.170Z,58.00
2022-12-22T05:36:54.910Z,63.20
2022-12-22T05:42:00.503Z,64.30
2022-12-22T05:47:06.354Z,61.30
2022-12-22T05:52:12.125Z,61.40
2022-12-22T05:57:17.979Z,69.60
2022-12-22T06:02:24.101Z,68.40
2022-12-22T06:07:30.374Z,56.30
2022-12-22T06:12:36.395Z,58.50
2022-12-22T06:17:45.101Z,70.00
2022-12-22T06:22:51.227Z,62.40
2022-12-22T06:27:57.120Z,62.60
2022-12-22T06:33:03.837Z,65.00
2022-12-22T06:38:09.818Z,68.50
2022-12-22T06:43:15.552Z,85.80
2022-12-22T06:48:21.371Z,74.30
2022-12-22T06:53:27.365Z,73.80
2022-12-22T06:58:33.244Z,61.40
2022-12-22T07:03:39.311Z,63.40
2022-12-22T07:08:45.056Z,65.40
2022-12-22T07:13:51.334Z,70.50
2022-12-22T07:18:57.079Z,61.90
2022-12-22T07:24:02.786Z,55.00
2022-12-22T07:29:08.650Z,64.40
2022-12-22T07:34:14.570Z,62.60
2022-12-22T07:39:20.383Z,59.00
2022-12-22T07:44:26.119Z,55.90
2022-12-22T07:49:51.156Z,53.50
2022-12-22T07:54:56.930Z,53.80
2022-12-22T08:00:03.105Z,52.50
2022-12-22T08:05:18.380Z,60.10
2022-12-22T08:10:24.222Z,52.50
2022-12-22T08:15:30.142Z,52.60
2022-12-22T08:20:35.948Z,53.10
2022-12-22T08:25:41.909Z,46.80
2022-12-22T08:30:48.436Z,49.60
2022-12-22T08:35:55.016Z,44.50
2022-12-22T08:41:01.158Z,38.60
2022-12-22T08:46:07.215Z,46.80
2022-12-22T08:51:12.965Z,43.50
2022-12-22T08:56:18.598Z,44.90
2022-12-22T09:01:25.077Z,49.90
2022-12-22T09:06:36.514Z,50.90
2022-12-22T09:11:46.620Z,45.30
2022-12-22T09:16:52.877Z,45.80
2022-12-22T09:21:58.690Z,42.90
2022-12-22T09:27:06.735Z,46.00
2022-12-22T09:32:12.781Z,41.80
2022-12-22T09:37:18.739Z,38.20
2022-12-22T09:42:24.728Z,39.60
2022-12-22T09:47:37.949Z,39.70
2022-12-22T09:52:49.452Z,38.50
2022-12-22T09:57:55.427Z,40.10
2022-12-22T10:03:13.145Z,41.40
2022-12-22T10:08:27.719Z,36.90
2022-12-22T10:13:33.841Z,40.40
2022-12-22T10:18:39.865Z,52.70
2022-12-22T10:23:48.002Z,39.60
2022-12-22T10:28:58.810Z,40.00
2022-12-22T10:34:15.031Z,39.50
2022-12-22T10:39:24.957Z,48.40
2022-12-22T10:44:34.933Z,39.40
2022-12-22T10:54:49.531Z,68.50
2022-12-22T10:59:57.291Z,67.10
2022-12-22T11:05:08.976Z,50.50
2022-12-22T11:10:24.550Z,55.10
2022-12-22T11:15:36.657Z,56.10
2022-12-22T11:20:55.747Z,169.60
2022-12-22T11:26:10.006Z,56.10
2022-12-22T11:31:34.442Z,49.80
2022-12-22T11:36:58.437Z,50.80
2022-12-22T11:42:18.499Z,45.30
2022-12-22T11:47:34.210Z,45.60
2022-12-22T11:52:55.777Z,51.50
2022-12-22T11:58:20.077Z,48.30
2022-12-22T12:03:46.099Z,83.70
2022-12-22T12:09:05.212Z,93.20
2022-12-22T12:14:22.889Z,66.90
2022-12-22T12:19:44.403Z,58.30
2022-12-22T12:25:01.330Z,49.00
2022-12-22T12:35:53.599Z,65.00
2022-12-22T12:41:06.772Z,49.30
2022-12-22T12:46:49.551Z,47.80
2022-12-22T12:51:55.903Z,56.20
2022-12-22T12:57:09.882Z,56.40
2022-12-22T13:02:33.469Z,65.10
2022-12-22T13:08:16.890Z,48.60
2022-12-22T13:13:48.518Z,57.30
2022-12-22T13:19:00.134Z,52.60
2022-12-22T13:24:29.667Z,49.40
2022-12-22T13:29:47.760Z,48.40
2022-12-22T13:35:31.077Z,42.50
2022-12-22T13:40:44.018Z,39.20
2022-12-22T13:45:52.546Z,36.60
2022-12-22T13:51:01.509Z,151.70
2022-12-22T13:56:14.166Z,41.80
2022-12-22T14:01:21.501Z,39.50
2022-12-22T14:06:31.613Z,35.90
2022-12-22T14:11:37.586Z,37.00
2022-12-22T14:16:47.482Z,48.50
2022-12-22T14:22:04.100Z,41.30
2022-12-22T14:27:17.535Z,55.20
2022-12-22T14:32:41.398Z,40.60
2022-12-22T14:37:48.013Z,40.60
2022-12-22T14:42:53.866Z,73.90
2022-12-22T14:47:59.581Z,195.40
2022-12-22T14:53:06.657Z,80.20
2022-12-22T14:58:16.772Z,125.10
2022-12-22T15:03:33.683Z,50.30
2022-12-22T15:08:41.721Z,46.10
2022-12-22T15:13:50.204Z,42.10
2022-12-22T15:18:56.340Z,54.20
2022-12-22T15:24:02.163Z,52.90
2022-12-22T15:29:07.946Z,49.30
2022-12-22T15:34:19.217Z,52.70
2022-12-22T15:39:25.429Z,56.30
2022-12-22T15:44:38.330Z,63.00
2022-12-22T15:49:44.787Z,59.10
2022-12-22T15:54:50.673Z,67.90
2022-12-22T15:59:56.374Z,73.00
2022-12-22T16:05:02.260Z,50.50
2022-12-22T16:10:20.845Z,51.20
2022-12-22T16:15:28.064Z,60.00
2022-12-22T16:20:38.209Z,58.10
2022-12-22T16:25:45.929Z,62.60
2022-12-22T16:30:52.647Z,70.20
2022-12-22T16:35:58.555Z,71.70
2022-12-22T16:41:05.680Z,73.80
2022-12-22T16:46:16.136Z,70.80
2022-12-22T16:51:25.199Z,77.00
2022-12-22T16:56:32.379Z,66.70
2022-12-22T17:01:41.038Z,64.40
2022-12-22T17:06:49.096Z,75.90
2022-12-22T17:11:55.766Z,99.50
2022-12-22T17:17:01.663Z,81.60
2022-12-22T17:22:15.472Z,79.10
2022-12-22T17:27:26.151Z,67.30
2022-12-22T17:32:32.022Z,65.10
2022-12-22T17:37:39.340Z,63.60
2022-12-22T17:42:45.321Z,82.50
2022-12-22T17:47:51.486Z,95.90
2022-12-22T17:52:57.426Z,73.00
2022-12-22T17:58:03.233Z,77.40
2022-12-22T18:03:11.811Z,95.70
2022-12-22T18:08:22.151Z,79.00
2022-12-22T18:13:54.245Z,127.10
2022-12-22T18:18:59.974Z,108.40
2022-12-22T18:24:06.758Z,85.10
2022-12-22T18:29:15.422Z,89.30
2022-12-22T18:34:21.159Z,85.00
2022-12-22T18:39:26.754Z,107.30
2022-12-22T18:44:32.415Z,70.60
2022-12-22T18:49:38.481Z,66.80
2022-12-22T18:54:44.540Z,63.90
2022-12-22T18:59:50.441Z,87.20
2022-12-22T19:04:56.547Z,79.20
2022-12-22T19:10:02.356Z,101.70
2022-12-22T19:15:19.790Z,85.30
2022-12-22T19:20:26.289Z,69.20
2022-12-22T19:25:33.193Z,75.70
2022-12-22T19:30:38.917Z,70.80
2022-12-22T19:35:44.795Z,68.80
2022-12-22T19:40:54.204Z,84.60
2022-12-22T19:46:00.005Z,105.80
2022-12-22T19:51:06.118Z,81.10
2022-12-22T19:56:21.585Z,82.90
2022-12-22T20:01:27.615Z,91.90
2022-12-22T20:06:33.602Z,96.00
2022-12-22T20:11:40.129Z,64.80
2022-12-22T20:16:46.189Z,67.20
2022-12-22T20:21:52.287Z,65.40
2022-12-22T20:27:46.503Z,46.50
2022-12-22T20:32:54.541Z,55.20
2022-12-22T20:38:00.875Z,46.20
2022-12-22T20:43:11.269Z,45.00
2022-12-22T20:48:29.198Z,40.70
2022-12-22T20:53:35.737Z,37.60
2022-12-22T20:58:41.680Z,42.30
2022-12-22T21:03:47.584Z,43.00
2022-12-22T21:08:55.297Z,39.20
2022-12-22T21:14:02.004Z,38.10
2022-12-22T21:19:08.194Z,44.00
2022-12-22T21:24:14.174Z,47.30
2022-12-22T21:29:22.770Z,37.20
2022-12-22T21:34:28.551Z,40.40
2022-12-22T21:39:39.501Z,41.90
2022-12-22T21:44:45.908Z,44.40
2022-12-22T21:49:51.857Z,35.10
2022-12-22T21:54:57.756Z,37.10
2022-12-22T22:00:03.866Z,39.30
2022-12-22T22:05:21.566Z,36.60
2022-12-22T22:10:30.011Z,39.00
2022-12-22T22:15:36.956Z,42.10
2022-12-22T22:20:42.980Z,33.80
2022-12-22T22:25:56.046Z,32.40
2022-12-22T22:31:08.000Z,38.30
2022-12-22T22:36:13.872Z,42.50
2022-12-22T22:41:19.823Z,37.80
2022-12-22T22:46:25.918Z,33.50
2022-12-22T22:51:31.668Z,39.30
2022-12-22T22:56:38.828Z,37.20
2022-12-22T23:01:45.039Z,32.70
2022-12-22T23:06:50.692Z,36.40
2022-12-22T23:11:56.651Z,30.60
2022-12-22T23:17:02.423Z,32.10
2022-12-22T23:22:10.109Z,26.80
2022-12-22T23:27:17.731Z,24.90
2022-12-22T23:32:23.626Z,26.00
2022-12-22T23:37:29.280Z,27.00
2022-12-22T23:42:36.235Z,24.30
2022-12-22T23:47:42.183Z,22.50
2022-12-22T23:52:49.560Z,28.20
2022-12-22T23:57:55.771Z,25.70
